Map

Track Data

SID SEASON NUMBER BASIN SUBBASIN NAME ISO_TIME NATURE LAT LON WMO_WIND WMO_PRES WMO_AGENCY TRACK_TYPE DIST2LAND LANDFALL IFLAG USA_AGENCY USA_ATCF_ID USA_LAT USA_LON USA_RECORD USA_STATUS USA_WIND USA_PRES USA_SSHS USA_R34_NE USA_R34_SE USA_R34_SW USA_R34_NW USA_R50_NE USA_R50_SE USA_R50_SW USA_R50_NW USA_R64_NE USA_R64_SE USA_R64_SW USA_R64_NW USA_POCI USA_ROCI USA_RMW USA_EYE TOKYO_LAT TOKYO_LON TOKYO_GRADE TOKYO_WIND TOKYO_PRES TOKYO_R50_DIR TOKYO_R50_LONG TOKYO_R50_SHORT TOKYO_R30_DIR TOKYO_R30_LONG TOKYO_R30_SHORT TOKYO_LAND CMA_LAT CMA_LON CMA_CAT CMA_WIND CMA_PRES HKO_LAT HKO_LON HKO_CAT HKO_WIND HKO_PRES NEWDELHI_LAT NEWDELHI_LON NEWDELHI_GRADE NEWDELHI_WIND NEWDELHI_PRES NEWDELHI_CI NEWDELHI_DP NEWDELHI_POCI REUNION_LAT REUNION_LON REUNION_TYPE REUNION_WIND REUNION_PRES REUNION_TNUM REUNION_CI REUNION_RMW REUNION_R34_NE REUNION_R34_SE REUNION_R34_SW REUNION_R34_NW REUNION_R50_NE REUNION_R50_SE REUNION_R50_SW REUNION_R50_NW REUNION_R64_NE REUNION_R64_SE REUNION_R64_SW REUNION_R64_NW BOM_LAT BOM_LON BOM_TYPE BOM_WIND BOM_PRES BOM_TNUM BOM_CI BOM_RMW BOM_R34_NE BOM_R34_SE BOM_R34_SW BOM_R34_NW BOM_R50_NE BOM_R50_SE BOM_R50_SW BOM_R50_NW BOM_R64_NE BOM_R64_SE BOM_R64_SW BOM_R64_NW BOM_ROCI BOM_POCI BOM_EYE BOM_POS_METHOD BOM_PRES_METHOD NADI_LAT NADI_LON NADI_CAT NADI_WIND NADI_PRES WELLINGTON_LAT WELLINGTON_LON WELLINGTON_WIND WELLINGTON_PRES DS824_LAT DS824_LON DS824_STAGE DS824_WIND DS824_PRES TD9636_LAT TD9636_LON TD9636_STAGE TD9636_WIND TD9636_PRES TD9635_LAT TD9635_LON TD9635_WIND TD9635_PRES TD9635_ROCI NEUMANN_LAT NEUMANN_LON NEUMANN_CLASS NEUMANN_WIND NEUMANN_PRES MLC_LAT MLC_LON MLC_CLASS MLC_WIND MLC_PRES USA_GUST BOM_GUST BOM_GUST_PER REUNION_GUST REUNION_GUST_PER USA_SEAHGT USA_SEARAD_NE USA_SEARAD_SE USA_SEARAD_SW USA_SEARAD_NW STORM_SPEED STORM_DIR
2020256N14342 2020 71 NA NA VICKY 2020-09-11 12:00:00 NR 14.0000 -18.0000 PROVISIONAL 93 93 O_____________ nhc_working_bt AL212020 14.0000 -18.0000 DB 20 -3 1012 150 80 12 276
2020256N14342 2020 71 NA NA VICKY 2020-09-11 15:00:00 NR 14.0580 -18.6198 PROVISIONAL 136 136 P_____________ AL212020 14.0580 -18.6198 DB 20 -3 1012 150 80 12 275
2020256N14342 2020 71 NA NA VICKY 2020-09-11 18:00:00 NR 14.1000 -19.2000 PROVISIONAL 195 195 O_____________ nhc_working_bt AL212020 14.1000 -19.2000 DB 20 -3 1012 150 80 11 274
2020256N14342 2020 71 NA NA VICKY 2020-09-11 21:00:00 NR 14.1271 -19.7278 PROVISIONAL 246 246 P_____________ AL212020 14.1271 -19.7278 DB 20 -3 1012 150 80 11 275
2020256N14342 2020 71 NA NA VICKY 2020-09-12 00:00:00 NR 14.2000 -20.3000 PROVISIONAL 306 306 O_____________ nhc_working_bt AL212020 14.2000 -20.3000 DB 20 -3 1012 150 80 13 281
2020256N14342 2020 71 NA NA VICKY 2020-09-12 03:00:00 NR 14.3852 -21.0423 PROVISIONAL 378 378 P_____________ AL212020 14.3852 -21.0423 DB 22 -3 1012 150 80 15 285
2020256N14342 2020 71 NA NA VICKY 2020-09-12 06:00:00 NR 14.6000 -21.8000 PROVISIONAL 462 462 O_____________ nhc_working_bt AL212020 14.6000 -21.8000 DB 25 -3 1012 150 80 14 285
2020256N14342 2020 71 NA NA VICKY 2020-09-12 09:00:00 NR 14.7498 -22.4377 PROVISIONAL 527 527 P_____________ AL212020 14.7498 -22.4377 DB 25 -3 1011 135 80 12 285
2020256N14342 2020 71 NA NA VICKY 2020-09-12 12:00:00 NR 14.9000 -23.0000 PROVISIONAL 591 591 O_____________ nhc_working_bt AL212020 14.9000 -23.0000 DB 25 1008 -3 1010 120 80 11 288
2020256N14342 2020 71 NA NA VICKY 2020-09-12 15:00:00 NR 15.0922 -23.5076 PROVISIONAL 646 646 P_____________ AL212020 15.0922 -23.5076 DB 25 1008 -3 1010 120 80 10 292
2020256N14342 2020 71 NA NA VICKY 2020-09-12 18:00:00 NR 15.3000 -24.0000 PROVISIONAL 701 701 O_____________ nhc_working_bt AL212020 15.3000 -24.0000 DB 25 1009 -3 1010 120 80 11 292
2020256N14342 2020 71 NA NA VICKY 2020-09-12 21:00:00 NR 15.5000 -24.5575 PROVISIONAL 767 767 P_____________ AL212020 15.5000 -24.5575 DB 25 1009 -3 1011 120 90 11 291
2020256N14342 2020 71 NA NA VICKY 2020-09-13 00:00:00 DS 15.7000 -25.1000 PROVISIONAL 823 823 O_____________ nhc_working_bt AL212020 15.7000 -25.1000 LO 25 1009 -3 1012 120 100 10 292
2020256N14342 2020 71 NA NA VICKY 2020-09-13 03:00:00 DS 15.8923 -25.5652 PROVISIONAL 879 879 P_____________ AL212020 15.8923 -25.5652 LO 25 1009 -3 1012 120 95 10 295
2020256N14342 2020 71 NA NA VICKY 2020-09-13 06:00:00 DS 16.1000 -26.0000 PROVISIONAL 924 924 O_____________ nhc_working_bt AL212020 16.1000 -26.0000 LO 25 1009 -3 1012 120 90 10 299
2020256N14342 2020 71 NA NA VICKY 2020-09-13 09:00:00 DS 16.3498 -26.4351 PROVISIONAL 970 970 P_____________ AL212020 16.3498 -26.4351 LO 25 1009 -3 1012 120 90 10 300
2020256N14342 2020 71 NA NA VICKY 2020-09-13 12:00:00 DS 16.6000 -26.9000 PROVISIONAL 1028 1028 O_____________ nhc_working_bt AL212020 16.6000 -26.9000 LO 25 1009 -3 1012 120 90 11 294
2020256N14342 2020 71 NA NA VICKY 2020-09-13 15:00:00 DS 16.8003 -27.4875 PROVISIONAL 1095 1095 P_____________ AL212020 16.8003 -27.4875 LO 25 1009 -3 1012 120 90 11 291
2020256N14342 2020 71 NA NA VICKY 2020-09-13 18:00:00 DS 17.0000 -28.0000 PROVISIONAL 1152 1152 O_____________ nhc_working_bt AL212020 17.0000 -28.0000 LO 25 1009 -3 1012 120 90 9 300
2020256N14342 2020 71 NA NA VICKY 2020-09-13 21:00:00 DS 17.2423 -28.2975 PROVISIONAL 1188 1188 P_____________ AL212020 17.2423 -28.2975 LO 27 1009 -3 1012 120 80 6 323
2020256N14342 2020 71 NA NA VICKY 2020-09-14 00:00:00 TS 17.5000 -28.4000 PROVISIONAL 1206 1201 O_____________ nhc_working_bt AL212020 17.5000 -28.4000 TD 30 1009 -1 1012 120 70 5 358
2020256N14342 2020 71 NA NA VICKY 2020-09-14 03:00:00 TS 17.7425 -28.3153 PROVISIONAL 1201 1196 P_____________ AL212020 17.7425 -28.3153 TD 30 1009 -1 1012 120 65 6 18
2020256N14342 2020 71 NA NA VICKY 2020-09-14 06:00:00 TS 18.0667 -28.2000 PROVISIONAL 1202 1195 O_____________ nhc_working_bt AL212020 18.0000 -28.2000 TD 30 1009 -1 1012 120 60 40 6 11
2020256N14342 2020 71 NA NA VICKY 2020-09-14 09:00:00 TS 18.2798 -28.1964 PROVISIONAL 1195 1192 P_____________ AL212020 18.3074 -28.2325 TD 35 1005 0 45 35 1012 120 60 4 342
2020256N14342 2020 71 NA NA VICKY 2020-09-14 12:00:00 TS 18.4800 -28.3400 PROVISIONAL 1200 1200 O_____________ nhc_working_bt AL212020 18.6000 -28.4000 TS 40 1002 0 90 70 1012 120 60 50 7 313
2020256N14342 2020 71 NA NA VICKY 2020-09-14 15:00:00 TS 18.7361 -28.7196 PROVISIONAL 1236 1233 P_____________ AL212020 18.8226 -28.7199 TS 42 1001 0 90 70 1012 120 60 9 304
2020256N14342 2020 71 NA NA VICKY 2020-09-14 18:00:00 TS 19.0000 -29.1667 PROVISIONAL 1280 1280 O_____________ nhc_working_bt AL212020 19.0000 -29.1000 TS 45 1000 0 90 70 1012 120 60 50 8 299
2020256N14342 2020 71 NA NA VICKY 2020-09-14 21:00:00 TS 19.1374 -29.4885 PROVISIONAL 1309 1307 P_____________ AL212020 19.1275 -29.4451 TS 45 1002 0 90 70 1013 135 60 6 301
2020256N14342 2020 71 NA NA VICKY 2020-09-15 00:00:00 TS 19.3000 -29.7000 PROVISIONAL 1326 1321 O_____________ nhc_working_bt AL212020 19.3000 -29.7000 TS 45 1004 0 90 70 1014 150 60 55 12 90 6 336
2020256N14342 2020 71 NA NA VICKY 2020-09-15 03:00:00 TS 19.6423 -29.7304 PROVISIONAL 1321 1316 P_____________ AL212020 19.6423 -29.7354 TS 45 1004 0 90 70 1013 150 60 12 90 7 352
2020256N14342 2020 71 NA NA VICKY 2020-09-15 06:00:00 TS 20.0000 -29.8000 PROVISIONAL 1326 1326 O_____________ nhc_working_bt AL212020 20.0000 -29.8000 TS 45 1004 0 90 70 1012 150 60 55 12 90 7 326
2020256N14342 2020 71 NA NA VICKY 2020-09-15 09:00:00 TS 20.2075 -30.1327 PROVISIONAL 1355 1355 P_____________ AL212020 20.2075 -30.1327 TS 45 1004 0 95 75 1012 150 60 12 105 9 298
2020256N14342 2020 71 NA NA VICKY 2020-09-15 12:00:00 TS 20.4000 -30.6000 PROVISIONAL 1405 1405 O_____________ nhc_working_bt AL212020 20.4000 -30.6000 TS 45 1004 0 100 80 1012 150 60 55 12 120 60 10 299
2020256N14342 2020 71 NA NA VICKY 2020-09-15 15:00:00 TS 20.7000 -31.0848 PROVISIONAL 1455 1455 P_____________ AL212020 20.7000 -31.0848 TS 45 1004 0 100 80 1012 135 60 12 120 45 11 303
2020256N14342 2020 71 NA NA VICKY 2020-09-15 18:00:00 TS 21.0000 -31.6000 PROVISIONAL 1505 1505 O_____________ nhc_working_bt AL212020 21.0000 -31.6000 TS 45 1004 0 100 80 1012 120 60 50 12 120 30 30 60 11 299
2020256N14342 2020 71 NA NA VICKY 2020-09-15 21:00:00 TS 21.2374 -32.1075 PROVISIONAL 1556 1556 P_____________ AL212020 21.2374 -32.1075 TS 45 1004 0 80 55 1012 120 47 12 120 30 30 45 10 293
2020256N14342 2020 71 NA NA VICKY 2020-09-16 00:00:00 TS 21.4000 -32.6000 PROVISIONAL 1608 1608 O_____________ nhc_working_bt AL212020 21.4000 -32.6000 TS 45 1004 0 60 30 30 70 1012 120 35 55 12 120 30 30 30 9 286
2020256N14342 2020 71 NA NA VICKY 2020-09-16 03:00:00 TS 21.4874 -33.0651 PROVISIONAL 1660 1660 P_____________ AL212020 21.4874 -33.0651 TS 45 1004 0 60 30 30 70 1012 120 35 12 120 30 30 30 8 277
2020256N14342 2020 71 NA NA VICKY 2020-09-16 06:00:00 TS 21.5000 -33.5000 PROVISIONAL 1701 1701 O_____________ nhc_working_bt AL212020 21.5000 -33.5000 TS 45 1004 0 60 30 30 70 1012 120 35 55 12 120 30 30 30 8 268
2020256N14342 2020 71 NA NA VICKY 2020-09-16 09:00:00 TS 21.4548 -33.8977 PROVISIONAL 1742 1742 P_____________ AL212020 21.4499 -33.9077 TS 40 1006 0 60 30 25 70 1012 135 35 12 120 30 52 75 8 262
2020256N14342 2020 71 NA NA VICKY 2020-09-16 12:00:00 TS 21.4000 -34.3000 PROVISIONAL 1784 1784 O_____________ nhc_working_bt AL212020 21.4000 -34.3000 TS 35 1008 0 60 30 20 70 1012 150 35 45 12 120 30 75 120 9 266
2020256N14342 2020 71 NA NA VICKY 2020-09-16 15:00:00 TS 21.3970 -34.8116 PROVISIONAL 1836 1836 P_____________ AL212020 21.4351 -34.7299 TS 35 1008 0 60 30 20 70 1012 150 35 9 272
2020256N14342 2020 71 NA NA VICKY 2020-09-16 18:00:00 TS 21.4333 -35.2333 PROVISIONAL 1877 1877 O_____________ nhc_working_bt AL212020 21.5000 -35.1000 TS 35 1008 0 60 30 20 70 1012 150 35 5 282
2020256N14342 2020 71 NA NA VICKY 2020-09-16 21:00:00 TS 21.5038 -35.3460 PROVISIONAL 1887 1887 P_____________ AL212020 21.5422 -35.3076 TS 35 1008 0 45 50 1012 150 30 3 312
2020256N14342 2020 71 NA NA VICKY 2020-09-17 00:00:00 TS 21.6000 -35.4333 PROVISIONAL 1897 1897 O_____________ nhc_working_bt AL212020 21.6000 -35.5000 TS 35 1008 0 30 30 1012 150 25 45 4 304
2020256N14342 2020 71 NA NA VICKY 2020-09-17 03:00:00 TS 21.7346 -35.7187 PROVISIONAL 1928 1928 P_____________ AL212020 21.7295 -35.7671 TS 35 1008 0 30 1012 150 25 7 286
2020256N14342 2020 71 NA NA VICKY 2020-09-17 06:00:00 TS 21.8000 -36.2000 PROVISIONAL 1980 1980 O_____________ nhc_working_bt AL212020 21.8000 -36.2000 TS 35 1008 0 30 1012 150 25 45 11 267
2020256N14342 2020 71 NA NA VICKY 2020-09-17 09:00:00 TS 21.6807 -36.9331 PROVISIONAL 2052 2052 P_____________ AL212020 21.6808 -36.9281 TS 32 1008 -1 1012 135 25 14 258
2020256N14342 2020 71 NA NA VICKY 2020-09-17 12:00:00 TS 21.5000 -37.7000 PROVISIONAL 2135 2135 O_____________ nhc_working_bt AL212020 21.5000 -37.7000 TD 30 1008 -1 1012 120 25 40 13 256
2020256N14342 2020 71 NA NA VICKY 2020-09-17 15:00:00 TS 21.3771 -38.2679 PROVISIONAL 2198 2198 P_____________ AL212020 21.3771 -38.2696 TD 27 1008 -1 1012 120 42 10 258
2020256N14342 2020 71 NA NA VICKY 2020-09-17 18:00:00 TS 21.3000 -38.7000 PROVISIONAL 2240 O_____________ nhc_working_bt AL212020 21.3000 -38.7000 TD 25 1008 -1 1012 120 60 35 8 259

About IBTrACS Database

This database is a web-friendly format of International Best Track Archive for Climate Stewardship (IBTrACS), a global best track data archive curated by NOAA dating back to 1842.

Updated: 2021-10-25